Terminal Aerodrome Forecast
Issued by NWS Shreveport, LA

Home | Current Version | Previous Version | Text Only | Print | Product List | Glossary On
Versions: 1 2 3 4 5 6 7 8 9 10 11 12 13 14 15 16 17 18 19 20 21 22 23 24 25
000
FTUS44 KSHV 290431 AAA
TAFGGG
TAF AMD
KGGG 290431Z 2905/2924 08007KT P6SM VCSH SCT050 OVC060
     FM290700 13008KT P6SM OVC010
     FM291400 14008KT P6SM VCTS OVC020CB
     FM291800 18015G25KT P6SM VCTS BKN040CB=

USA.gov is the U.S. government's official web portal to all federal, state and local government web resources and services.